Time;durP1;ratioP1;P1;durP2;ratioP2;P2;SDS_P1;SDS_P2;PMS_P1;PMS_P2;Temp;Humidity;BMP_temperature;BMP_pressure;BME280_temperature;BME280_humidity;BME280_pressure;Samples;Min_cycle;Max_cycle;Signal;HPM_P1;HPM_P2
2022/09/26 00:01:31;;;;;;;11.80;5.70;;;;;;;11.28;nan;97635.34;5053197;28;20228;-70
2022/09/26 00:04:01;;;;;;;7.03;5.40;;;;;;;11.22;nan;97641.63;5053256;28;20197;-70
2022/09/26 00:06:28;;;;;;;9.37;5.70;;;;;;;11.25;nan;97630.50;5053470;28;20278;-70
2022/09/26 00:08:55;;;;;;;5.60;5.10;;;;;;;11.23;nan;97636.03;5053714;28;20213;-70
2022/09/26 00:11:25;;;;;;;6.77;5.63;;;;;;;11.23;nan;97636.03;5053348;28;20221;-70
2022/09/26 00:13:54;;;;;;;7.90;5.43;;;;;;;11.31;nan;97634.09;5053610;28;20205;-70
2022/09/26 00:16:21;;;;;;;5.73;5.20;;;;;;;11.23;nan;97626.44;5053086;28;20205;-71
2022/09/26 00:18:52;;;;;;;6.37;5.07;;;;;;;11.23;nan;97623.78;5053232;28;20210;-70
2022/09/26 00:21:19;;;;;;;6.93;5.20;;;;;;;11.23;nan;97624.59;5052981;28;20258;-70
2022/09/26 00:23:47;;;;;;;6.83;5.50;;;;;;;11.25;nan;97624.38;5052935;28;20227;-70
2022/09/26 00:26:15;;;;;;;7.13;5.37;;;;;;;11.22;nan;97619.50;5052870;28;20202;-70
2022/09/26 00:28:42;;;;;;;6.53;5.57;;;;;;;11.08;nan;97621.59;5055189;28;20287;-70
2022/09/26 00:31:12;;;;;;;8.20;5.40;;;;;;;11.10;nan;97624.84;5056775;28;20237;-71
2022/09/26 00:33:38;;;;;;;6.20;5.50;;;;;;;11.05;nan;97627.41;5056759;28;20240;-70
2022/09/26 00:36:06;;;;;;;8.23;5.20;;;;;;;11.03;nan;97614.31;5056835;28;20292;-70
2022/09/26 00:38:33;;;;;;;7.07;5.30;;;;;;;11.02;nan;97628.66;5056410;28;20205;-71
2022/09/26 00:41:00;;;;;;;6.57;5.30;;;;;;;10.98;nan;97626.69;5056326;28;20597;-70
2022/09/26 00:43:28;;;;;;;5.93;5.30;;;;;;;10.92;nan;97622.31;5056725;28;20205;-71
2022/09/26 00:45:57;;;;;;;6.20;5.43;;;;;;;10.89;nan;97625.41;5057307;28;20213;-70
2022/09/26 00:48:24;;;;;;;6.10;5.50;;;;;;;10.81;nan;97621.25;5056551;28;20201;-70
2022/09/26 00:50:52;;;;;;;7.87;5.33;;;;;;;10.76;nan;97621.13;5054877;28;20225;-70
2022/09/26 00:53:23;;;;;;;6.33;5.43;;;;;;;10.76;nan;97617.66;5055951;28;20222;-70
2022/09/26 00:55:55;;;;;;;8.00;6.10;;;;;;;10.72;nan;97617.31;5056180;28;20197;-70
2022/09/26 00:58:32;;;;;;;9.90;7.00;;;;;;;10.87;nan;97611.56;5056083;28;20522;-70
2022/09/26 01:01:00;;;;;;;7.00;5.10;;;;;;;10.78;nan;97618.25;5056883;28;20259;-70
2022/09/26 01:03:28;;;;;;;9.00;6.33;;;;;;;10.76;nan;97617.66;5056758;28;20205;-71
2022/09/26 01:05:56;;;;;;;8.23;6.20;;;;;;;10.80;nan;97621.47;5056394;28;20205;-70
2022/09/26 01:08:31;;;;;;;6.97;6.33;;;;;;;10.69;nan;97609.00;5056692;28;20209;-70
2022/09/26 01:10:59;;;;;;;7.43;5.83;;;;;;;10.73;nan;97602.19;5056582;28;20232;-70
2022/09/26 01:13:27;;;;;;;8.07;6.57;;;;;;;10.65;nan;97599.88;5056510;28;20229;-70
2022/09/26 01:15:53;;;;;;;8.37;6.23;;;;;;;10.55;nan;97595.09;5056554;28;20213;-70
2022/09/26 01:18:20;;;;;;;9.30;6.53;;;;;;;10.52;nan;97600.06;5056444;28;20201;-71
2022/09/26 01:21:00;;;;;;;8.80;6.53;;;;;;;10.43;nan;97593.47;5056102;28;20244;-70
2022/09/26 01:23:40;;;;;;;7.70;6.90;;;;;;;10.50;nan;97600.31;5056946;28;20189;-70
2022/09/26 01:26:13;;;;;;;8.77;6.83;;;;;;;10.41;nan;97606.19;5054849;28;20189;-71
2022/09/26 01:28:45;;;;;;;8.17;7.03;;;;;;;10.39;nan;97605.59;5056273;28;20201;-70
2022/09/26 01:31:36;;;;;;;7.53;6.63;;;;;;;10.29;nan;97602.69;5056251;28;20241;-70
2022/09/26 01:34:15;;;;;;;8.17;6.90;;;;;;;10.32;nan;97604.91;5056090;28;20220;-70
2022/09/26 01:37:13;;;;;;;8.03;6.30;;;;;;;10.30;nan;97614.94;5039031;28;20268;-71
2022/09/26 01:39:51;;;;;;;7.63;5.83;;;;;;;10.29;nan;97610.66;5056158;28;20668;-70
2022/09/26 01:42:44;;;;;;;8.00;6.47;;;;;;;10.27;nan;97613.56;5056002;28;20207;-70
2022/09/26 01:45:18;;;;;;;6.80;6.20;;;;;;;10.15;nan;97617.22;5040519;28;20197;-70
2022/09/26 01:48:04;;;;;;;6.93;6.27;;;;;;;10.18;nan;97608.81;5056018;28;20190;-70
2022/09/26 01:50:41;;;;;;;9.47;6.60;;;;;;;10.17;nan;97610.63;5056120;28;20233;-70
2022/09/26 01:53:19;;;;;;;10.97;6.63;;;;;;;10.17;nan;97613.28;5055426;28;20205;-70
2022/09/26 01:55:52;;;;;;;8.00;7.17;;;;;;;10.09;nan;97607.50;5054689;28;20193;-70
2022/09/26 01:58:50;;;;;;;8.80;7.03;;;;;;;10.20;nan;97609.38;5055416;28;20633;-70
2022/09/26 02:01:20;;;;;;;10.10;6.67;;;;;;;10.11;nan;97608.06;5048091;28;20229;-70
2022/09/26 02:03:51;;;;;;;8.07;6.30;;;;;;;10.10;nan;97606.47;5054462;28;20202;-70
2022/09/26 02:06:36;;;;;;;6.93;6.23;;;;;;;10.17;nan;97605.31;5055634;28;20208;-70
2022/09/26 02:09:15;;;;;;;7.53;6.03;;;;;;;10.26;nan;97606.63;5055556;28;20205;-70
2022/09/26 02:11:45;;;;;;;6.97;6.13;;;;;;;10.26;nan;97609.28;5055140;28;20582;-70
2022/09/26 02:14:21;;;;;;;6.23;5.73;;;;;;;10.33;nan;97601.22;5056246;28;20213;-70
2022/09/26 02:16:50;;;;;;;7.80;5.97;;;;;;;10.26;nan;97597.84;5055481;28;20207;-71
2022/09/26 02:19:28;;;;;;;8.53;5.93;;;;;;;10.32;nan;97594.28;5055300;28;20576;-71
2022/09/26 02:21:57;;;;;;;10.60;6.20;;;;;;;10.29;nan;97592.88;5055324;28;20636;-70
2022/09/26 02:24:24;;;;;;;11.20;6.13;;;;;;;10.30;nan;97596.34;5055291;28;20201;-71
2022/09/26 02:26:51;;;;;;;9.73;6.80;;;;;;;10.30;nan;97593.69;5055185;28;20206;-70
2022/09/26 02:29:19;;;;;;;27.93;7.50;;;;;;;10.27;nan;97594.16;5054818;28;20687;-70
2022/09/26 02:31:53;;;;;;;18.93;7.27;;;;;;;10.26;nan;97596.00;5054727;28;20213;-70
2022/09/26 02:34:19;;;;;;;25.67;7.97;;;;;;;10.28;nan;97593.91;5053891;28;20266;-70
2022/09/26 02:36:46;;;;;;;19.97;7.17;;;;;;;10.24;nan;97576.81;5055061;28;20207;-70
2022/09/26 02:39:13;;;;;;;28.47;8.33;;;;;;;10.23;nan;97569.88;5054588;28;20695;-70
2022/09/26 02:41:49;;;;;;;18.40;6.93;;;;;;;10.33;nan;97571.97;5054886;28;20205;-70
2022/09/26 02:44:38;;;;;;;26.40;8.10;;;;;;;10.33;nan;97569.31;5054901;28;20185;-70
2022/09/26 02:47:29;;;;;;;14.67;6.63;;;;;;;10.32;nan;97571.16;5053716;28;20190;-70
2022/09/26 02:50:37;;;;;;;10.33;6.33;;;;;;;10.34;nan;97577.06;5054027;28;20225;-70
2022/09/26 02:53:30;;;;;;;12.10;7.03;;;;;;;10.29;nan;97566.31;5046193;28;20216;-70
2022/09/26 02:56:13;;;;;;;17.40;7.63;;;;;;;10.35;nan;97561.91;5054280;28;20209;-71
2022/09/26 02:59:01;;;;;;;16.77;6.90;;;;;;;10.37;nan;97565.19;5055323;28;20189;-70
2022/09/26 03:01:52;;;;;;;14.23;6.63;;;;;;;10.34;nan;97561.13;5054088;28;20222;-70
2022/09/26 03:04:41;;;;;;;16.10;6.67;;;;;;;10.36;nan;97555.59;5054282;28;20212;-70
2022/09/26 03:07:14;;;;;;;9.47;6.23;;;;;;;10.36;nan;97553.72;5054360;28;20190;-70
2022/09/26 03:09:43;;;;;;;12.07;5.80;;;;;;;10.33;nan;97548.06;5054317;28;20232;-70
2022/09/26 03:12:10;;;;;;;12.63;6.67;;;;;;;10.31;nan;97542.97;5053969;28;20209;-70
2022/09/26 03:14:40;;;;;;;10.50;6.93;;;;;;;10.35;nan;97538.84;5052648;28;20726;-70
2022/09/26 03:17:08;;;;;;;14.10;6.73;;;;;;;10.33;nan;97532.13;5053760;28;20634;-70
2022/09/26 03:19:45;;;;;;;8.80;6.40;;;;;;;10.30;nan;97529.91;5053643;28;20236;-70
2022/09/26 03:22:11;;;;;;;10.90;6.63;;;;;;;10.31;nan;97529.69;5053996;28;20193;-70
2022/09/26 03:24:41;;;;;;;8.10;6.10;;;;;;;10.31;nan;97531.53;5052571;28;20672;-70
2022/09/26 03:27:10;;;;;;;8.37;6.00;;;;;;;10.29;nan;97525.66;5052833;28;20212;-70
2022/09/26 03:29:37;;;;;;;7.67;5.90;;;;;;;10.30;nan;97521.94;5053432;28;20624;-71
2022/09/26 03:32:04;;;;;;;7.67;5.37;;;;;;;10.28;nan;97519.53;5036328;28;20200;-70
2022/09/26 03:34:31;;;;;;;6.57;5.43;;;;;;;10.25;nan;97522.66;5053692;28;20225;-70
2022/09/26 03:36:57;;;;;;;7.60;5.30;;;;;;;10.22;nan;97515.13;5053772;28;20209;-70
2022/09/26 03:39:23;;;;;;;8.43;5.00;;;;;;;10.17;nan;97516.84;5053742;28;20201;-70
2022/09/26 03:41:50;;;;;;;7.17;4.80;;;;;;;10.18;nan;97508.66;5053342;28;20215;-70
2022/09/26 03:44:16;;;;;;;7.07;5.00;;;;;;;10.18;nan;97507.88;5053334;28;20205;-70
2022/09/26 03:46:43;;;;;;;7.57;5.07;;;;;;;10.20;nan;97508.44;5053662;28;20205;-70
2022/09/26 03:49:11;;;;;;;6.60;4.87;;;;;;;10.17;nan;97507.03;5053478;28;20205;-70
2022/09/26 03:51:37;;;;;;;8.83;5.30;;;;;;;10.18;nan;97508.66;5053674;28;20259;-70
2022/09/26 03:54:04;;;;;;;8.80;5.37;;;;;;;10.23;nan;97505.34;5053545;28;20587;-70
2022/09/26 03:56:30;;;;;;;6.07;4.77;;;;;;;10.17;nan;97492.94;5053525;28;20205;-70
2022/09/26 03:58:57;;;;;;;7.57;4.77;;;;;;;10.22;nan;97495.72;5053088;28;20578;-70
2022/09/26 04:01:23;;;;;;;7.53;5.10;;;;;;;10.24;nan;97494.47;5053122;28;20225;-70
2022/09/26 04:03:50;;;;;;;5.67;4.47;;;;;;;10.19;nan;97488.22;5053237;28;20201;-70
2022/09/26 04:06:18;;;;;;;6.37;4.23;;;;;;;10.18;nan;97497.25;5052936;28;20576;-70
2022/09/26 04:08:46;;;;;;;4.73;4.33;;;;;;;10.22;nan;97482.44;5053290;28;20209;-70
2022/09/26 04:11:15;;;;;;;6.70;4.93;;;;;;;10.15;nan;97490.53;5053142;28;20221;-70
2022/09/26 04:13:42;;;;;;;6.03;4.50;;;;;;;10.09;nan;97482.69;5053225;28;20233;-70
2022/09/26 04:16:09;;;;;;;9.07;4.87;;;;;;;10.00;nan;97474.19;5052801;28;20687;-70
2022/09/26 04:18:36;;;;;;;5.27;4.20;;;;;;;9.98;nan;97476.28;5052925;28;20240;-70
2022/09/26 04:21:04;;;;;;;5.87;4.33;;;;;;;9.97;nan;97464.06;5052808;28;20229;-70
2022/09/26 04:23:34;;;;;;;5.53;4.30;;;;;;;9.98;nan;97456.88;5052965;28;20253;-70
2022/09/26 04:26:11;;;;;;;4.27;3.87;;;;;;;9.91;nan;97466.81;5053719;28;20311;-70
2022/09/26 04:28:39;;;;;;;5.67;4.27;;;;;;;9.83;nan;97464.47;5053324;28;20200;-70
2022/09/26 04:31:07;;;;;;;6.20;4.30;;;;;;;9.77;nan;97454.78;5052692;28;20715;-70
2022/09/26 04:33:34;;;;;;;5.33;3.50;;;;;;;9.69;nan;97460.41;5053263;28;20595;-70
2022/09/26 04:36:02;;;;;;;5.87;3.77;;;;;;;9.65;nan;97449.44;5053130;28;20209;-70
2022/09/26 04:38:32;;;;;;;4.50;4.10;;;;;;;9.63;nan;97448.03;5053032;28;20216;-71
2022/09/26 04:41:10;;;;;;;4.27;3.83;;;;;;;9.68;nan;97441.03;5052566;28;20782;-70
2022/09/26 04:43:37;;;;;;;5.03;3.77;;;;;;;9.69;nan;97449.81;5052700;28;20197;-70
2022/09/26 04:46:24;;;;;;;3.90;3.50;;;;;;;9.72;nan;97449.31;5052663;28;20210;-70
2022/09/26 04:48:52;;;;;;;5.67;3.90;;;;;;;9.68;nan;97448.97;5052976;28;20555;-70
2022/09/26 04:51:20;;;;;;;6.80;4.23;;;;;;;9.72;nan;97444.00;5052515;28;20573;-70
2022/09/26 04:53:47;;;;;;;6.67;3.50;;;;;;;9.67;nan;97444.72;5052345;28;20720;-70
2022/09/26 04:56:15;;;;;;;6.30;3.40;;;;;;;9.65;nan;97438.81;5052757;28;20551;-70
2022/09/26 04:58:43;;;;;;;5.43;3.60;;;;;;;9.65;nan;97435.38;5052763;28;20209;-71
2022/09/26 05:01:15;;;;;;;4.20;3.20;;;;;;;9.53;nan;97431.88;5052652;28;20232;-70
2022/09/26 05:03:41;;;;;;;6.03;3.40;;;;;;;9.57;nan;97431.19;5052127;28;20212;-70
2022/09/26 05:06:10;;;;;;;3.87;3.20;;;;;;;9.61;nan;97428.88;5053177;28;20274;-70
2022/09/26 05:08:37;;;;;;;4.60;3.37;;;;;;;9.48;nan;97421.94;5052609;28;20208;-70
2022/09/26 05:11:04;;;;;;;4.33;3.07;;;;;;;9.52;nan;97427.59;5052634;28;20229;-70
2022/09/26 05:13:31;;;;;;;4.10;3.27;;;;;;;9.44;nan;97420.78;5053135;28;20585;-70
2022/09/26 05:16:01;;;;;;;5.10;3.10;;;;;;;9.50;nan;97424.38;5056664;28;20209;-70
2022/09/26 05:18:28;;;;;;;5.73;3.20;;;;;;;9.41;nan;97436.34;5056276;28;20211;-70
2022/09/26 05:20:57;;;;;;;7.57;3.40;;;;;;;9.38;nan;97437.63;5055892;28;20221;-70
2022/09/26 05:26:22;;;;;;;4.53;3.30;;;;;;;9.40;nan;97440.00;5055532;28;20176;-70
2022/09/26 05:28:48;;;;;;;6.33;3.57;;;;;;;9.39;nan;97439.22;5055867;28;20276;-70
2022/09/26 05:31:15;;;;;;;6.67;3.60;;;;;;;9.35;nan;97437.22;5055526;28;20241;-70
2022/09/26 05:33:43;;;;;;;4.13;3.30;;;;;;;9.31;nan;97426.28;5055531;28;20275;-70
2022/09/26 05:36:09;;;;;;;4.27;3.20;;;;;;;9.29;nan;97422.22;5055359;28;20677;-69
2022/09/26 05:38:36;;;;;;;3.23;2.93;;;;;;;9.24;nan;97416.78;5055319;28;20205;-70
2022/09/26 05:41:01;;;;;;;5.20;3.57;;;;;;;9.29;nan;97422.22;5055750;28;20229;-70
2022/09/26 05:43:32;;;;;;;4.60;3.50;;;;;;;9.34;nan;97423.19;5055665;28;20203;-70
2022/09/26 05:46:00;;;;;;;6.30;3.57;;;;;;;9.45;nan;97422.41;5055901;28;20231;-70
2022/09/26 05:48:28;;;;;;;4.87;3.83;;;;;;;9.45;nan;97418.91;5055073;28;20211;-70
2022/09/26 05:50:54;;;;;;;5.60;3.30;;;;;;;9.43;nan;97416.53;5055182;28;20257;-69
2022/09/26 05:53:22;;;;;;;6.10;3.80;;;;;;;9.39;nan;97419.84;5054629;28;20752;-70
2022/09/26 05:55:49;;;;;;;5.50;3.33;;;;;;;9.52;nan;97414.34;5054991;28;20217;-70
2022/09/26 05:58:18;;;;;;;3.80;3.10;;;;;;;9.58;nan;97416.88;5054889;28;20667;-70
2022/09/26 06:00:46;;;;;;;4.83;3.53;;;;;;;9.63;nan;97411.69;5054937;28;20221;-70
2022/09/26 06:03:14;;;;;;;5.03;3.40;;;;;;;9.73;nan;97405.84;5055008;28;20279;-72
2022/09/26 06:05:41;;;;;;;4.70;3.57;;;;;;;9.79;nan;97403.09;5054702;28;20219;-71
2022/09/26 06:08:09;;;;;;;8.40;3.90;;;;;;;9.89;nan;97403.31;5054994;28;20278;-72
2022/09/26 06:10:37;;;;;;;6.83;3.83;;;;;;;10.00;nan;97405.16;5054566;28;20236;-71
2022/09/26 06:13:06;;;;;;;7.00;4.47;;;;;;;10.09;nan;97403.00;5054154;28;20213;-71
2022/09/26 06:15:32;;;;;;;8.20;3.80;;;;;;;10.19;nan;97403.22;5055227;28;20612;-71
2022/09/26 06:18:04;;;;;;;5.67;3.83;;;;;;;10.26;nan;97414.53;5054887;28;20215;-72
2022/09/26 06:20:32;;;;;;;7.83;3.67;;;;;;;10.31;nan;97406.66;5054891;28;20225;-72
2022/09/26 06:23:00;;;;;;;5.70;3.97;;;;;;;10.33;nan;97399.28;5054710;28;20201;-71
2022/09/26 06:25:28;;;;;;;7.13;4.10;;;;;;;10.41;nan;97399.72;5053371;28;20201;-71
2022/09/26 06:27:56;;;;;;;5.10;3.87;;;;;;;10.48;nan;97395.13;5054617;28;20578;-71
2022/09/26 06:30:23;;;;;;;5.17;3.70;;;;;;;10.47;nan;97395.34;5054617;28;20237;-71
2022/09/26 06:32:53;;;;;;;5.57;3.70;;;;;;;10.51;nan;97391.97;5054694;28;20598;-71
2022/09/26 06:35:20;;;;;;;6.03;3.80;;;;;;;10.56;nan;97388.63;5054341;28;20243;-72
2022/09/26 06:37:48;;;;;;;6.90;3.63;;;;;;;10.58;nan;97390.00;5054115;28;20205;-72
2022/09/26 06:40:14;;;;;;;5.73;3.97;;;;;;;10.66;nan;97384.31;5054389;28;20251;-72
2022/09/26 06:42:42;;;;;;;5.23;2.90;;;;;;;10.81;nan;97386.44;5054375;28;20208;-72
2022/09/26 06:45:10;;;;;;;4.27;3.30;;;;;;;10.78;nan;97385.06;5054106;28;20206;-72
2022/09/26 06:47:37;;;;;;;8.77;3.57;;;;;;;10.85;nan;97379.63;5054250;28;20660;-71
2022/09/26 06:50:04;;;;;;;4.13;3.03;;;;;;;10.92;nan;97385.63;5054606;28;20235;-72
2022/09/26 06:52:33;;;;;;;5.63;2.90;;;;;;;10.98;nan;97387.31;5054398;28;20206;-71
2022/09/26 06:55:02;;;;;;;5.00;3.20;;;;;;;11.05;nan;97388.00;5054493;28;20229;-72
2022/09/26 06:57:29;;;;;;;6.13;3.00;;;;;;;11.04;nan;97387.19;5054424;28;20205;-71
2022/09/26 06:59:56;;;;;;;6.47;3.40;;;;;;;11.19;nan;97382.13;5053713;28;20229;-71
2022/09/26 07:02:25;;;;;;;6.53;3.07;;;;;;;11.17;nan;97380.75;5054623;28;20209;-71
2022/09/26 07:04:52;;;;;;;5.07;2.50;;;;;;;11.24;nan;97373.44;5054245;28;20205;-71
2022/09/26 07:07:18;;;;;;;5.43;2.80;;;;;;;11.36;nan;97374.22;5053714;28;20256;-71
2022/09/26 07:09:44;;;;;;;5.10;2.70;;;;;;;11.46;nan;97373.56;5053786;28;20745;-72
2022/09/26 07:12:14;;;;;;;5.30;2.70;;;;;;;11.42;nan;97373.25;5053574;28;20213;-71
2022/09/26 07:14:41;;;;;;;4.57;2.83;;;;;;;11.53;nan;97377.66;5053266;28;20217;-72
2022/09/26 07:17:07;;;;;;;5.07;3.00;;;;;;;11.59;nan;97371.41;5053695;28;20201;-72
2022/09/26 07:19:34;;;;;;;2.40;2.20;;;;;;;11.69;nan;97373.44;5053398;28;20233;-72
2022/09/26 07:22:00;;;;;;;3.37;2.23;;;;;;;11.74;nan;97377.00;5053589;28;20212;-71
2022/09/26 07:24:26;;;;;;;3.87;2.50;;;;;;;11.79;nan;97373.59;5053443;28;20210;-72
2022/09/26 07:26:53;;;;;;;2.83;2.00;;;;;;;11.64;nan;97384.81;5053672;28;20213;-72
2022/09/26 07:29:19;;;;;;;3.30;2.17;;;;;;;11.62;nan;97367.47;5053223;28;20209;-71
2022/09/26 07:31:45;;;;;;;3.83;2.30;;;;;;;11.68;nan;97369.16;5053369;28;20225;-70
2022/09/26 07:34:12;;;;;;;5.97;1.80;;;;;;;11.67;nan;97365.69;5053628;28;20233;-70
2022/09/26 07:36:39;;;;;;;4.13;2.10;;;;;;;11.78;nan;97366.66;5053225;28;20205;-70
2022/09/26 07:39:06;;;;;;;4.83;2.40;;;;;;;11.86;nan;97364.41;5053163;28;20611;-71
2022/09/26 07:41:32;;;;;;;5.10;2.10;;;;;;;12.04;nan;97360.66;5053212;28;20704;-70
2022/09/26 07:43:59;;;;;;;5.77;2.30;;;;;;;12.17;nan;97361.09;5053802;28;20533;-71
2022/09/26 07:51:59;;;;;;;4.10;2.00;;;;;;;12.22;nan;97363.06;5053113;28;20327;-71
2022/09/26 07:54:25;;;;;;;4.03;2.00;;;;;;;12.21;nan;97361.44;5053333;28;20226;-71
2022/09/26 07:56:52;;;;;;;2.50;1.60;;;;;;;12.34;nan;97358.44;5053412;28;20548;-71
2022/09/26 07:59:18;;;;;;;3.83;1.80;;;;;;;12.35;nan;97352.81;5052892;28;20207;-71
2022/09/26 08:01:45;;;;;;;3.10;2.20;;;;;;;12.53;nan;97357.84;5053201;28;20213;-71
2022/09/26 08:04:12;;;;;;;3.70;1.80;;;;;;;12.47;nan;97352.72;5052895;28;20305;-71
2022/09/26 08:06:38;;;;;;;2.57;1.70;;;;;;;12.52;nan;97356.25;5053301;28;20207;-71
2022/09/26 08:09:04;;;;;;;2.10;1.90;;;;;;;12.67;nan;97347.66;5053188;28;20600;-72
2022/09/26 08:11:31;;;;;;;2.93;1.67;;;;;;;12.74;nan;97351.72;5053169;28;20223;-71
2022/09/26 08:13:57;;;;;;;2.43;2.00;;;;;;;12.73;nan;97355.47;5053374;28;20227;-71
2022/09/26 08:16:24;;;;;;;4.43;1.83;;;;;;;12.85;nan;97339.31;5053101;28;20219;-72
2022/09/26 08:18:51;;;;;;;3.67;1.90;;;;;;;12.87;nan;97334.53;5052882;28;20663;-71
2022/09/26 08:21:18;;;;;;;3.90;1.73;;;;;;;12.89;nan;97332.44;5052523;28;20574;-70
2022/09/26 08:23:45;;;;;;;2.27;2.00;;;;;;;12.94;nan;97330.59;5052689;28;20211;-71
2022/09/26 08:26:12;;;;;;;4.10;2.00;;;;;;;12.96;nan;97330.34;5052855;28;20212;-71
2022/09/26 08:28:39;;;;;;;2.10;1.90;;;;;;;13.02;nan;97332.84;5052282;28;20250;-72
2022/09/26 08:31:07;;;;;;;3.87;2.00;;;;;;;13.03;nan;97323.78;5052734;28;20237;-71
2022/09/26 08:33:36;;;;;;;4.33;2.20;;;;;;;13.08;nan;97329.19;5052440;28;20297;-71
2022/09/26 08:36:15;;;;;;;4.20;2.00;;;;;;;13.07;nan;97324.91;5052848;28;20226;-71
2022/09/26 08:38:42;;;;;;;3.00;1.73;;;;;;;13.10;nan;97323.59;5053067;28;20193;-71
2022/09/26 08:41:48;;;;;;;2.90;2.00;;;;;;;13.13;nan;97323.91;5052844;28;20221;-71
2022/09/26 08:45:00;;;;;;;4.80;1.90;;;;;;;13.15;nan;97318.31;5051666;28;20192;-72
2022/09/26 08:47:47;;;;;;;4.03;1.80;;;;;;;13.23;nan;97317.84;5031549;28;20212;-72
2022/09/26 08:50:37;;;;;;;2.40;1.73;;;;;;;13.23;nan;97312.50;5056368;28;20236;-72
2022/09/26 08:53:10;;;;;;;3.67;2.23;;;;;;;13.16;nan;97315.38;5055391;28;20196;-71
2022/09/26 08:55:42;;;;;;;3.07;2.00;;;;;;;13.33;nan;97315.25;5056763;28;20216;-70
2022/09/26 08:58:20;;;;;;;6.07;1.93;;;;;;;13.38;nan;97310.00;5056711;28;20194;-72
2022/09/26 09:00:51;;;;;;;3.00;2.00;;;;;;;13.44;nan;97308.97;5055169;28;20220;-71
2022/09/26 09:03:23;;;;;;;3.50;1.60;;;;;;;13.45;nan;97311.38;5056214;28;20205;-71
2022/09/26 09:05:55;;;;;;;4.93;2.20;;;;;;;13.63;nan;97313.66;5056339;28;20291;-71
2022/09/26 09:08:25;;;;;;;1.97;1.73;;;;;;;13.75;nan;97308.94;5056285;28;20190;-71
2022/09/26 09:11:27;;;;;;;3.17;1.80;;;;;;;13.91;nan;97307.16;5056234;28;20236;-71
2022/09/26 09:14:02;;;;;;;2.23;1.60;;;;;;;14.08;nan;97311.28;5045280;28;20303;-71
2022/09/26 09:16:37;;;;;;;8.33;1.83;;;;;;;14.11;nan;97308.09;5056352;28;20559;-72
2022/09/26 09:19:28;;;;;;;4.43;1.57;;;;;;;14.18;nan;97306.00;5056173;28;20200;-72
2022/09/26 09:22:20;;;;;;;3.33;1.50;;;;;;;14.27;nan;97304.47;5056246;28;20212;-71
2022/09/26 09:25:09;;;;;;;4.50;1.60;;;;;;;14.06;nan;97299.25;5056243;28;20261;-69
2022/09/26 09:27:57;;;;;;;2.73;1.83;;;;;;;14.23;nan;97303.38;5056196;28;20280;-75
2022/09/26 09:30:35;;;;;;;3.30;1.50;;;;;;;14.09;nan;97298.72;5055725;28;20244;-70
2022/09/26 09:33:11;;;;;;;3.83;1.70;;;;;;;14.17;nan;97285.69;5055804;28;20601;-70
2022/09/26 09:36:05;;;;;;;1.50;1.40;;;;;;;14.27;nan;97290.28;5055761;28;20220;-70
2022/09/26 09:38:38;;;;;;;3.57;1.70;;;;;;;14.46;nan;97284.22;5050386;28;20686;-70
2022/09/26 09:41:10;;;;;;;2.77;1.50;;;;;;;14.36;nan;97281.53;5056299;28;20235;-71
2022/09/26 09:44:04;;;;;;;2.83;1.67;;;;;;;14.62;nan;97277.88;5055843;28;20200;-71
2022/09/26 09:46:43;;;;;;;1.93;1.33;;;;;;;14.76;nan;97276.31;5054728;28;20212;-71
2022/09/26 09:49:10;;;;;;;2.70;1.70;;;;;;;14.80;nan;97268.56;5054620;28;20205;-71
2022/09/26 09:51:54;;;;;;;3.77;1.60;;;;;;;15.03;nan;97265.38;5055180;28;20233;-71
2022/09/26 09:54:58;;;;;;;2.93;1.60;;;;;;;15.06;nan;97264.84;5055402;28;20244;-69
2022/09/26 09:57:56;;;;;;;3.30;2.53;;;;;;;14.88;nan;97258.13;5015285;28;20663;-69
2022/09/26 10:19:37;;;;;;;2.10;1.80;;;;;;;14.42;nan;97240.34;4998254;28;20202;-69
2022/09/26 10:22:08;;;;;;;2.47;1.50;;;;;;;14.50;nan;97237.19;5016094;28;20559;-70
2022/09/26 10:24:52;;;;;;;2.20;1.30;;;;;;;14.79;nan;97237.53;5015435;28;20253;-70
2022/09/26 10:27:36;;;;;;;2.63;1.77;;;;;;;15.09;nan;97226.81;5014134;28;20672;-70
2022/09/26 10:30:24;;;;;;;1.10;1.00;;;;;;;15.51;nan;97241.59;5014949;28;20333;-70
2022/09/26 10:32:54;;;;;;;2.53;1.20;;;;;;;15.68;nan;97226.03;5014430;28;20751;-70
2022/09/26 10:35:43;;;;;;;2.37;1.20;;;;;;;15.95;nan;97229.19;5014676;28;20224;-71
2022/09/26 10:38:26;;;;;;;2.67;1.20;;;;;;;16.18;nan;97219.69;5014955;28;20215;-70
2022/09/26 10:40:58;;;;;;;3.63;1.30;;;;;;;16.38;nan;97217.72;5014729;28;20284;-71
2022/09/26 10:43:24;;;;;;;1.77;1.40;;;;;;;15.95;nan;97218.44;5014804;28;20194;-70
2022/09/26 10:45:54;;;;;;;3.50;1.63;;;;;;;15.85;nan;97210.44;5014617;28;20724;-70
2022/09/26 10:48:26;;;;;;;3.27;1.30;;;;;;;15.78;nan;97215.28;5014321;28;20210;-71
2022/09/26 10:50:59;;;;;;;2.30;1.30;;;;;;;15.64;nan;97200.84;5014116;28;20701;-71
2022/09/26 10:53:27;;;;;;;1.30;1.10;;;;;;;15.69;nan;97200.81;5014728;28;20208;-72
2022/09/26 10:55:56;;;;;;;4.83;3.13;;;;;;;15.71;nan;97201.38;5014385;28;20227;-71
2022/09/26 10:58:28;;;;;;;1.63;1.10;;;;;;;15.84;nan;97208.81;5014538;28;20377;-73
2022/09/26 11:00:59;;;;;;;26.03;21.07;;;;;;;15.96;nan;97200.50;5014257;28;20697;-72
2022/09/26 11:03:44;;;;;;;2.03;1.53;;;;;;;16.07;nan;97192.16;5014554;28;20191;-73
2022/09/26 11:06:43;;;;;;;2.27;1.07;;;;;;;16.31;nan;97187.75;5014098;28;20193;-73
2022/09/26 11:09:12;;;;;;;4.23;3.10;;;;;;;15.80;nan;97190.91;4981258;28;20257;-74
2022/09/26 11:11:41;;;;;;;1.33;1.13;;;;;;;15.62;nan;97189.59;5012853;28;20225;-72
2022/09/26 11:14:08;;;;;;;3.10;0.97;;;;;;;15.57;nan;97189.63;5014012;28;20301;-72
2022/09/26 11:16:44;;;;;;;2.00;1.10;;;;;;;15.57;nan;97181.59;5014262;28;20218;-72
2022/09/26 11:19:35;;;;;;;5.03;1.30;;;;;;;15.40;nan;97180.25;5013656;28;20206;-73
2022/09/26 11:22:25;;;;;;;1.60;1.03;;;;;;;15.40;nan;97178.41;5014100;28;20187;-72
2022/09/26 11:25:02;;;;;;;1.37;0.97;;;;;;;15.41;nan;97171.97;5014956;28;20281;-72
2022/09/26 11:27:31;;;;;;;2.63;1.17;;;;;;;15.53;nan;97161.75;5013852;28;20187;-72
2022/09/26 11:30:07;;;;;;;3.63;3.10;;;;;;;15.69;nan;97157.16;5013027;28;20241;-71
2022/09/26 11:32:39;;;;;;;1.93;0.97;;;;;;;15.84;nan;97146.41;5013481;28;20245;-72
2022/09/26 11:35:12;;;;;;;2.17;1.30;;;;;;;16.04;nan;97141.75;5013662;28;20249;-71
2022/09/26 11:37:42;;;;;;;4.13;1.07;;;;;;;15.94;nan;97138.31;5014115;28;20187;-72
2022/09/26 11:40:20;;;;;;;2.07;1.43;;;;;;;16.06;nan;97126.19;5013599;28;20564;-72
2022/09/26 11:42:53;;;;;;;2.20;1.70;;;;;;;15.74;nan;97128.47;5014512;28;20206;-73
2022/09/26 11:45:33;;;;;;;1.37;0.90;;;;;;;15.85;nan;97129.22;5013863;28;20194;-73
2022/09/26 11:48:19;;;;;;;3.40;1.33;;;;;;;15.80;nan;97124.72;5013964;28;20235;-72
2022/09/26 11:51:13;;;;;;;2.30;1.00;;;;;;;16.10;nan;97121.88;5013649;28;20317;-72
2022/09/26 11:53:54;;;;;;;3.23;1.20;;;;;;;16.08;nan;97116.00;5013413;28;20190;-72
2022/09/26 11:56:28;;;;;;;2.23;1.10;;;;;;;16.29;nan;97109.41;5012471;28;20214;-72
2022/09/26 11:59:02;;;;;;;1.90;1.07;;;;;;;15.92;nan;97114.44;5013544;28;20245;-72
2022/09/26 12:01:41;;;;;;;1.57;1.10;;;;;;;15.69;nan;97127.69;5013574;28;20234;-72
2022/09/26 12:04:20;;;;;;;1.87;1.13;;;;;;;15.48;nan;97140.34;5013321;28;20221;-73
2022/09/26 12:06:52;;;;;;;1.90;1.20;;;;;;;15.22;nan;97138.75;5013234;28;20187;-72
2022/09/26 12:09:36;;;;;;;1.80;0.97;;;;;;;14.93;nan;97147.63;5013281;28;20207;-72
2022/09/26 12:12:33;;;;;;;5.07;1.60;;;;;;;13.46;nan;97142.09;5012199;28;20204;-72
2022/09/26 12:15:22;;;;;;;10.43;2.10;;;;;;;13.42;nan;97138.34;5013069;28;20678;-72
2022/09/26 12:18:00;;;;;;;4.13;1.67;;;;;;;13.44;nan;97132.75;5013966;28;20195;-72
2022/09/26 12:20:52;;;;;;;3.00;1.27;;;;;;;13.42;nan;97124.19;5013369;28;20253;-72
2022/09/26 12:23:21;;;;;;;2.03;1.30;;;;;;;13.38;nan;97104.44;5015266;28;20197;-72
2022/09/26 12:25:54;;;;;;;1.80;1.10;;;;;;;13.52;nan;97093.00;5017911;28;20215;-72
2022/09/26 12:28:39;;;;;;;2.40;1.13;;;;;;;13.79;nan;97085.63;5017504;28;20194;-72
2022/09/26 12:31:33;;;;;;;2.17;1.20;;;;;;;13.99;nan;97069.66;5016488;28;20233;-71
2022/09/26 12:34:37;;;;;;;1.30;1.10;;;;;;;13.94;nan;97068.84;5017122;28;20187;-71
2022/09/26 12:37:32;;;;;;;2.93;1.20;;;;;;;14.18;nan;97060.06;5016531;28;20685;-71
2022/09/26 12:40:24;;;;;;;3.43;1.80;;;;;;;14.18;nan;97054.72;5015839;28;20226;-71
2022/09/26 12:43:12;;;;;;;1.50;1.13;;;;;;;14.18;nan;97054.72;5016890;28;20602;-71
2022/09/26 12:46:03;;;;;;;3.17;1.80;;;;;;;14.63;nan;97052.09;5016804;28;20719;-72
2022/09/26 12:48:33;;;;;;;1.97;1.17;;;;;;;14.72;nan;97045.16;5017040;28;20202;-72